Time;durP1;ratioP1;P1;durP2;ratioP2;P2;SDS_P1;SDS_P2;PMS_P1;PMS_P2;Temp;Humidity;BMP_temperature;BMP_pressure;BME280_temperature;BME280_humidity;BME280_pressure;Samples;Min_cycle;Max_cycle;Signal;HPM_P1;HPM_P2
2022/01/15 00:00:24;;;;;;;11.40;3.10;;;;;;;1.26;64.77;100846.19;105635;1277;24304;-81
2022/01/15 00:02:51;;;;;;;8.80;2.50;;;;;;;1.27;64.63;100838.59;106053;1274;25241;-80
2022/01/15 00:05:19;;;;;;;11.90;3.30;;;;;;;1.25;64.71;100839.91;105809;1273;22704;-80
2022/01/15 00:07:47;;;;;;;8.90;3.20;;;;;;;1.21;64.80;100843.42;105741;1273;22563;-79
2022/01/15 00:10:18;;;;;;;8.40;3.00;;;;;;;1.18;64.80;100838.98;105995;1273;25244;-79
2022/01/15 00:12:46;;;;;;;8.70;2.40;;;;;;;1.17;64.96;100842.40;105956;1273;22544;-78
2022/01/15 00:15:20;;;;;;;9.10;2.70;;;;;;;1.17;64.97;100848.31;106030;1273;22487;-77
2022/01/15 00:17:57;;;;;;;10.80;3.40;;;;;;;1.17;64.95;100849.70;105897;1273;24250;-77
2022/01/15 00:20:25;;;;;;;10.70;3.50;;;;;;;1.17;64.94;100851.10;106065;1273;25304;-78
2022/01/15 00:22:55;;;;;;;9.00;2.80;;;;;;;1.12;65.04;100847.79;106121;1273;22550;-80
2022/01/15 00:25:24;;;;;;;8.50;2.50;;;;;;;1.14;65.08;100853.06;105874;1273;22537;-77
2022/01/15 00:27:53;;;;;;;10.30;3.20;;;;;;;1.11;65.06;100849.33;106004;1273;25516;-79
2022/01/15 00:30:21;;;;;;;8.90;2.70;;;;;;;1.07;65.19;100849.71;105978;1273;23906;-81
2022/01/15 00:32:51;;;;;;;10.20;3.10;;;;;;;1.05;65.30;100850.66;107088;1273;23181;-87
2022/01/15 00:35:23;;;;;;;9.40;3.10;;;;;;;1.07;65.47;100849.32;106423;1279;24386;-86
2022/01/15 00:37:51;;;;;;;12.20;3.20;;;;;;;1.07;65.46;100845.00;105605;1279;25405;-83
2022/01/15 00:40:20;;;;;;;10.60;3.10;;;;;;;1.06;65.44;100845.82;105775;1279;22499;-81
2022/01/15 00:42:48;;;;;;;8.20;2.90;;;;;;;1.06;65.48;100845.98;105688;1280;25445;-85
2022/01/15 00:45:20;;;;;;;8.50;3.60;;;;;;;1.04;65.49;100844.37;105361;1281;22812;-86
2022/01/15 00:47:52;;;;;;;6.30;2.80;;;;;;;1.01;65.39;100841.66;105589;1281;22729;-87
2022/01/15 00:50:20;;;;;;;10.00;3.30;;;;;;;0.98;65.45;100838.43;105876;1279;25313;-87
2022/01/15 00:53:40;;;;;;;15.80;3.40;;;;;;;0.94;65.61;100835.50;105378;1279;23344;-88
2022/01/15 00:56:35;;;;;;;7.60;3.60;;;;;;;0.94;65.62;100838.83;105874;1285;22836;-89
2022/01/15 01:00:32;;;;;;;;;;;;;;;;;;;;;
2022/01/15 01:04:01;;;;;;;8.40;2.60;;;;;;;0.93;65.51;100834.60;107354;1293;22853;-91
2022/01/15 01:07:26;;;;;;;6.00;2.50;;;;;;;0.93;65.59;100837.20;107240;1292;23393;-92
2022/01/15 01:29:15;;;;;;;9.20;2.80;;;;;;;0.97;65.95;100863.73;108388;1282;22581;-89
2022/01/15 01:45:13;;;;;;;5.40;2.10;;;;;;;0.86;66.64;100868.51;105441;1281;22622;-83
2022/01/15 01:47:43;;;;;;;7.50;2.70;;;;;;;0.80;66.79;100874.69;105717;1276;24207;-84
2022/01/15 01:50:20;;;;;;;11.30;2.80;;;;;;;0.75;66.88;100868.95;106074;1276;22587;-81
2022/01/15 01:52:50;;;;;;;12.50;3.70;;;;;;;0.73;67.14;100870.80;105810;1277;22551;-85
2022/01/15 01:55:19;;;;;;;10.60;2.70;;;;;;;0.73;67.32;100866.09;105688;1276;25373;-81
2022/01/15 01:57:47;;;;;;;8.50;3.00;;;;;;;0.70;67.38;100867.21;105794;1276;24262;-81
2022/01/15 02:00:18;;;;;;;10.50;3.10;;;;;;;0.68;67.57;100871.29;105818;1276;23977;-86
2022/01/15 02:02:50;;;;;;;10.30;3.40;;;;;;;0.66;67.67;100870.86;106026;1274;22604;-84
2022/01/15 02:05:24;;;;;;;10.70;2.90;;;;;;;0.68;67.93;100874.77;106090;1273;22545;-80
2022/01/15 02:07:52;;;;;;;6.70;2.50;;;;;;;0.66;67.94;100871.39;106055;1273;24364;-80
2022/01/15 02:10:21;;;;;;;8.90;3.10;;;;;;;0.63;68.16;100871.96;106011;1273;22562;-82
2022/01/15 02:12:55;;;;;;;10.60;4.00;;;;;;;0.60;68.38;100871.84;106481;1273;22616;-82
2022/01/15 02:15:24;;;;;;;14.20;3.40;;;;;;;0.56;68.49;100869.61;106536;1273;22541;-79
2022/01/15 02:17:51;;;;;;;6.60;2.20;;;;;;;0.54;68.62;100863.98;106723;1273;26866;-79
2022/01/15 02:20:34;;;;;;;8.50;2.50;;;;;;;0.49;68.72;100862.23;106618;1273;22560;-84
2022/01/15 02:25:59;;;;;;;9.90;3.30;;;;;;;0.45;69.24;100862.77;106554;1273;24221;-83
2022/01/15 02:28:29;;;;;;;8.00;3.10;;;;;;;0.48;69.25;100858.04;106096;1273;24493;-80
2022/01/15 02:31:00;;;;;;;10.30;2.90;;;;;;;0.48;69.37;100860.11;105988;1275;24386;-79
2022/01/15 02:33:29;;;;;;;11.10;2.90;;;;;;;0.46;69.33;100861.59;105781;1273;24270;-79
2022/01/15 02:35:58;;;;;;;11.80;3.20;;;;;;;0.45;69.46;100863.10;106048;1273;25536;-81
2022/01/15 02:38:26;;;;;;;11.80;3.30;;;;;;;0.43;69.51;100867.89;105619;1279;22600;-80
2022/01/15 02:40:53;;;;;;;11.50;2.50;;;;;;;0.41;69.64;100863.27;105614;1279;25117;-82
2022/01/15 02:43:28;;;;;;;9.80;3.10;;;;;;;0.40;69.63;100863.11;105631;1279;22583;-82
2022/01/15 02:45:56;;;;;;;13.90;3.00;;;;;;;0.43;69.78;100857.33;105323;1279;24441;-82
2022/01/15 02:48:27;;;;;;;7.90;2.80;;;;;;;0.45;69.82;100864.19;105253;1279;24298;-80
2022/01/15 02:50:57;;;;;;;12.00;3.00;;;;;;;0.48;69.76;100862.88;105385;1279;24624;-81
2022/01/15 02:53:24;;;;;;;7.80;2.50;;;;;;;0.47;69.72;100858.36;105625;1279;22566;-79
2022/01/15 02:55:53;;;;;;;10.80;3.50;;;;;;;0.41;69.78;100858.29;105539;1277;25400;-81
2022/01/15 02:58:23;;;;;;;8.10;3.00;;;;;;;0.33;69.87;100857.10;106337;1276;22542;-81
2022/01/15 03:00:52;;;;;;;8.30;3.30;;;;;;;0.32;70.10;100858.27;107080;1278;22544;-81
2022/01/15 03:03:19;;;;;;;4.60;2.50;;;;;;;0.34;70.10;100859.71;107060;1276;22679;-79
2022/01/15 03:05:47;;;;;;;10.90;3.20;;;;;;;0.35;70.18;100851.10;108167;1278;22583;-80
2022/01/15 03:08:14;;;;;;;5.60;2.30;;;;;;;0.35;70.21;100857.02;107625;1277;24207;-81
2022/01/15 03:10:42;;;;;;;6.40;2.40;;;;;;;0.36;70.22;100859.80;106463;1277;22842;-82
2022/01/15 03:13:11;;;;;;;6.60;2.30;;;;;;;0.36;70.35;100857.23;106473;1277;25395;-84
2022/01/15 03:15:41;;;;;;;8.20;2.30;;;;;;;0.33;70.22;100857.27;107847;1277;22710;-82
2022/01/15 03:18:08;;;;;;;6.50;2.20;;;;;;;0.31;70.30;100863.92;108498;1273;24005;-82
2022/01/15 03:20:36;;;;;;;12.90;3.60;;;;;;;0.28;70.42;100864.35;107088;1277;25401;-82
2022/01/15 03:23:03;;;;;;;10.50;2.80;;;;;;;0.28;70.55;100866.27;106249;1277;22548;-82
2022/01/15 03:25:32;;;;;;;8.80;2.80;;;;;;;0.30;70.53;100864.75;105475;1282;23052;-84
2022/01/15 03:28:00;;;;;;;10.30;3.30;;;;;;;0.28;70.48;100863.45;105171;1282;22565;-82
2022/01/15 03:30:27;;;;;;;10.10;2.90;;;;;;;0.24;70.67;100862.30;104944;1282;22600;-78
2022/01/15 03:32:54;;;;;;;10.50;2.50;;;;;;;0.23;70.61;100867.29;105101;1282;22567;-80
2022/01/15 03:35:21;;;;;;;10.50;3.00;;;;;;;0.21;70.67;100869.46;105205;1282;24014;-78
2022/01/15 03:37:48;;;;;;;13.70;3.30;;;;;;;0.20;70.78;100873.71;105083;1284;24299;-81
2022/01/15 03:40:16;;;;;;;7.20;3.00;;;;;;;0.18;70.84;100877.26;105099;1284;22603;-82
2022/01/15 03:42:46;;;;;;;10.90;3.20;;;;;;;0.16;70.92;100874.61;105143;1285;25338;-82
2022/01/15 03:45:15;;;;;;;12.70;4.10;;;;;;;0.11;71.03;100875.64;105747;1279;22570;-83
2022/01/15 03:47:45;;;;;;;13.60;4.30;;;;;;;0.09;71.20;100878.48;105377;1279;22547;-83
2022/01/15 03:50:13;;;;;;;9.50;3.60;;;;;;;0.09;71.22;100884.19;105718;1279;22544;-85
2022/01/15 03:52:40;;;;;;;9.30;3.00;;;;;;;0.12;71.40;100887.08;105800;1279;25420;-81
2022/01/15 03:55:11;;;;;;;10.50;2.70;;;;;;;0.09;71.34;100885.42;105513;1279;22945;-82
2022/01/15 03:57:40;;;;;;;6.20;2.20;;;;;;;0.07;71.41;100888.95;105161;1281;25773;-81
2022/01/15 04:00:14;;;;;;;8.50;2.80;;;;;;;0.04;71.41;100891.24;105545;1281;22545;-79
2022/01/15 04:02:41;;;;;;;11.20;3.80;;;;;;;0.01;71.46;100887.15;105166;1282;22613;-81
2022/01/15 04:05:10;;;;;;;10.30;2.90;;;;;;;0.00;71.63;100889.54;105002;1287;24223;-82
2022/01/15 04:07:38;;;;;;;11.10;2.70;;;;;;;-0.02;71.64;100888.25;104621;1290;22597;-82
2022/01/15 04:10:09;;;;;;;9.50;3.20;;;;;;;-0.03;71.87;100887.49;104743;1291;22564;-78
2022/01/15 04:12:37;;;;;;;14.90;3.60;;;;;;;-0.07;71.87;100885.77;104846;1290;22856;-83
2022/01/15 04:15:07;;;;;;;15.00;3.80;;;;;;;-0.09;71.89;100888.30;104815;1287;22759;-83
2022/01/15 04:17:34;;;;;;;13.90;3.70;;;;;;;-0.11;71.98;100893.58;105178;1285;25273;-82
2022/01/15 04:20:04;;;;;;;12.10;3.60;;;;;;;-0.16;72.03;100898.23;105268;1284;24280;-84
2022/01/15 04:22:31;;;;;;;9.80;3.90;;;;;;;-0.19;72.08;100900.15;105054;1288;24311;-83
2022/01/15 04:24:58;;;;;;;9.40;4.00;;;;;;;-0.21;72.36;100903.52;106530;1282;22568;-78
2022/01/15 04:27:25;;;;;;;11.80;3.70;;;;;;;-0.28;72.58;100900.64;107148;1282;22506;-81
2022/01/15 04:29:55;;;;;;;8.90;3.30;;;;;;;-0.30;72.59;100904.04;107056;1281;22492;-81
2022/01/15 04:32:23;;;;;;;9.00;3.50;;;;;;;-0.33;72.66;100902.69;107276;1287;23945;-80
2022/01/15 04:34:51;;;;;;;9.60;3.40;;;;;;;-0.34;72.84;100902.46;107477;1284;22756;-79
2022/01/15 04:37:21;;;;;;;13.70;4.40;;;;;;;-0.35;72.98;100902.77;106727;1284;22579;-78
2022/01/15 04:39:49;;;;;;;11.80;4.50;;;;;;;-0.34;73.02;100909.75;105360;1282;22551;-81
2022/01/15 04:42:20;;;;;;;12.50;4.50;;;;;;;-0.35;72.92;100909.33;105344;1282;24231;-78
2022/01/15 04:44:47;;;;;;;10.70;4.10;;;;;;;-0.39;73.02;100910.05;105596;1281;25228;-80
2022/01/15 04:47:14;;;;;;;15.90;4.00;;;;;;;-0.42;73.09;100911.33;105791;1281;24243;-77
2022/01/15 04:49:41;;;;;;;13.10;4.00;;;;;;;-0.47;73.28;100906.58;106109;1276;23692;-79
2022/01/15 04:52:08;;;;;;;11.80;5.00;;;;;;;-0.47;73.26;100916.10;106418;1276;22563;-79
2022/01/15 04:54:36;;;;;;;11.20;4.00;;;;;;;-0.47;73.26;100919.71;107004;1274;23012;-82
2022/01/15 04:57:06;;;;;;;11.60;4.50;;;;;;;-0.49;73.31;100923.98;107037;1275;22558;-83
2022/01/15 04:59:33;;;;;;;10.30;3.50;;;;;;;-0.50;73.54;100931.70;106905;1273;22538;-82
2022/01/15 05:02:00;;;;;;;10.50;4.40;;;;;;;-0.55;73.48;100934.44;106455;1274;25259;-82
2022/01/15 05:04:27;;;;;;;9.00;3.80;;;;;;;-0.54;73.61;100940.54;106635;1275;22542;-82
2022/01/15 05:06:54;;;;;;;11.00;4.10;;;;;;;-0.55;73.66;100940.15;105991;1276;22750;-77
2022/01/15 05:09:21;;;;;;;11.80;4.70;;;;;;;-0.55;73.71;100940.31;106104;1274;25411;-81
2022/01/15 05:11:59;;;;;;;10.80;4.10;;;;;;;-0.59;73.85;100945.68;106119;1275;22583;-81
2022/01/15 05:14:39;;;;;;;9.50;3.10;;;;;;;-0.64;73.96;100949.61;105854;1276;25319;-80
2022/01/15 05:17:07;;;;;;;9.20;3.30;;;;;;;-0.65;74.12;100961.50;105879;1275;24281;-78
2022/01/15 05:19:34;;;;;;;13.40;4.40;;;;;;;-0.66;74.22;100956.80;105994;1274;22553;-82
2022/01/15 05:22:02;;;;;;;12.70;4.80;;;;;;;-0.64;74.26;100973.48;105874;1275;23213;-81
2022/01/15 05:24:31;;;;;;;8.50;2.90;;;;;;;-0.63;74.29;100972.98;105307;1281;22576;-82
2022/01/15 05:26:58;;;;;;;11.70;4.40;;;;;;;-0.64;74.15;100971.95;104916;1284;24488;-80
2022/01/15 05:29:25;;;;;;;8.40;3.00;;;;;;;-0.61;74.30;100969.98;104812;1285;26130;-79
2022/01/15 05:31:53;;;;;;;10.10;3.70;;;;;;;-0.61;74.26;100972.95;104914;1287;24274;-81
2022/01/15 05:34:20;;;;;;;8.50;4.30;;;;;;;-0.60;74.34;100972.60;104958;1285;22702;-82
2022/01/15 05:36:47;;;;;;;12.40;4.20;;;;;;;-0.64;74.14;100979.55;104901;1285;25339;-80
2022/01/15 05:39:14;;;;;;;12.40;3.90;;;;;;;-0.65;74.30;100979.34;104889;1285;24564;-82
2022/01/15 05:41:42;;;;;;;11.60;4.70;;;;;;;-0.64;74.51;100979.04;104848;1285;24236;-81
2022/01/15 05:44:09;;;;;;;13.80;4.50;;;;;;;-0.61;74.45;100979.35;105130;1282;22693;-80
2022/01/15 05:46:37;;;;;;;9.90;3.90;;;;;;;-0.58;74.36;100982.06;105685;1279;22566;-81
2022/01/15 05:49:04;;;;;;;12.80;4.50;;;;;;;-0.59;74.19;100979.41;105584;1279;24280;-81
2022/01/15 05:51:32;;;;;;;13.40;4.30;;;;;;;-0.61;74.29;100974.45;105737;1276;22739;-83
2022/01/15 05:54:01;;;;;;;12.70;3.20;;;;;;;-0.62;74.23;100976.67;105706;1276;22526;-80
2022/01/15 05:56:29;;;;;;;16.40;5.60;;;;;;;-0.65;74.40;100978.81;105233;1281;22578;-82
2022/01/15 05:58:57;;;;;;;14.40;4.10;;;;;;;-0.68;74.49;100976.06;105402;1282;22538;-81
2022/01/15 06:01:25;;;;;;;11.00;3.60;;;;;;;-0.69;74.61;100976.69;105374;1283;25510;-82
2022/01/15 06:03:53;;;;;;;12.70;4.10;;;;;;;-0.71;74.68;100978.34;105135;1281;25325;-81
2022/01/15 06:06:20;;;;;;;8.50;3.60;;;;;;;-0.70;74.60;100983.06;105507;1281;22496;-81
2022/01/15 06:08:47;;;;;;;10.70;4.00;;;;;;;-0.70;74.66;100982.04;105186;1281;24084;-83
2022/01/15 06:11:17;;;;;;;14.30;4.90;;;;;;;-0.71;74.65;100985.63;105698;1281;24456;-82
2022/01/15 06:13:45;;;;;;;10.10;3.80;;;;;;;-0.70;74.72;100987.92;105504;1279;24330;-81
2022/01/15 06:16:14;;;;;;;13.80;4.00;;;;;;;-0.67;74.61;100985.11;105966;1275;22594;-81
2022/01/15 06:18:41;;;;;;;14.10;4.30;;;;;;;-0.65;74.55;100987.27;105793;1276;24288;-81
2022/01/15 06:21:08;;;;;;;8.80;3.50;;;;;;;-0.63;74.62;100993.23;105755;1276;24276;-80
2022/01/15 06:23:35;;;;;;;15.70;4.40;;;;;;;-0.64;74.53;100995.10;105658;1276;24330;-82
2022/01/15 06:26:02;;;;;;;12.00;3.20;;;;;;;-0.65;74.44;101000.92;105603;1276;25502;-86
2022/01/15 06:28:29;;;;;;;12.80;3.50;;;;;;;-0.69;74.52;101005.78;105810;1276;25300;-82
2022/01/15 06:30:56;;;;;;;10.60;3.70;;;;;;;-0.68;74.60;101009.60;105719;1276;25687;-83
2022/01/15 06:33:23;;;;;;;18.40;4.50;;;;;;;-0.70;74.70;101009.02;105873;1274;24232;-82
2022/01/15 06:35:50;;;;;;;14.40;4.50;;;;;;;-0.72;74.77;101006.13;105903;1276;24385;-82
2022/01/15 06:38:17;;;;;;;10.10;4.00;;;;;;;-0.72;74.74;101004.92;106038;1274;23243;-82
2022/01/15 06:40:44;;;;;;;10.50;4.10;;;;;;;-0.72;74.85;101007.36;105752;1275;24933;-80
2022/01/15 06:43:11;;;;;;;8.70;3.60;;;;;;;-0.71;74.80;101003.59;105985;1274;25255;-82
2022/01/15 06:45:38;;;;;;;12.80;4.20;;;;;;;-0.72;74.67;101003.02;106272;1273;24273;-86
2022/01/15 06:48:06;;;;;;;9.90;3.40;;;;;;;-0.71;74.84;100995.62;107584;1274;25313;-91
2022/01/15 06:50:33;;;;;;;9.80;2.90;;;;;;;-0.71;74.87;100997.38;107619;1276;23358;-91
2022/01/15 06:53:00;;;;;;;10.40;3.70;;;;;;;-0.74;74.87;100998.81;106919;1274;24230;-88
2022/01/15 06:55:28;;;;;;;17.10;4.50;;;;;;;-0.74;74.90;101001.21;106977;1274;22621;-90
2022/01/15 06:57:56;;;;;;;9.70;4.40;;;;;;;-0.71;74.85;101014.65;107470;1273;25472;-91
2022/01/15 07:00:26;;;;;;;13.80;3.40;;;;;;;-0.71;74.87;101014.33;107303;1273;23368;-90
2022/01/15 07:02:53;;;;;;;12.40;3.80;;;;;;;-0.66;74.93;101020.79;107334;1273;24197;-91
2022/01/15 07:05:21;;;;;;;9.50;3.70;;;;;;;-0.63;74.91;101033.55;107311;1279;24268;-92
2022/01/15 07:07:49;;;;;;;9.30;3.10;;;;;;;-0.62;74.93;101040.20;107060;1279;22731;-89
2022/01/15 07:10:16;;;;;;;11.30;4.00;;;;;;;-0.61;74.77;101047.48;107424;1279;22690;-89
2022/01/15 07:12:48;;;;;;;13.40;3.40;;;;;;;-0.59;74.86;101043.60;107086;1282;22488;-86
2022/01/15 07:15:15;;;;;;;11.50;3.20;;;;;;;-0.57;74.79;101040.94;107241;1282;22657;-89
2022/01/15 07:17:44;;;;;;;11.10;3.40;;;;;;;-0.56;74.67;101038.05;107628;1284;22586;-90
2022/01/15 07:20:14;;;;;;;10.00;3.30;;;;;;;-0.54;74.80;101036.91;107736;1284;22592;-89
2022/01/15 07:22:43;;;;;;;7.20;2.70;;;;;;;-0.54;74.68;101031.54;106294;1285;22605;-90
2022/01/15 07:25:13;;;;;;;8.40;2.70;;;;;;;-0.53;74.51;101037.30;106873;1282;22772;-91
2022/01/15 07:27:40;;;;;;;11.10;4.10;;;;;;;-0.50;74.82;101036.59;106248;1284;25519;-91
2022/01/15 07:30:11;;;;;;;10.10;2.70;;;;;;;-0.49;74.82;101033.34;105761;1282;23834;-83
2022/01/15 07:32:40;;;;;;;11.50;3.70;;;;;;;-0.45;74.60;101047.89;106992;1279;23009;-89
2022/01/15 07:35:15;;;;;;;13.10;3.80;;;;;;;-0.44;74.80;101049.65;107047;1279;23957;-85
2022/01/15 07:37:43;;;;;;;11.40;4.10;;;;;;;-0.40;74.68;101052.59;108285;1281;22644;-89
2022/01/15 07:40:11;;;;;;;10.60;2.90;;;;;;;-0.41;74.48;101053.61;108516;1274;22515;-89
2022/01/15 07:42:40;;;;;;;11.90;4.10;;;;;;;-0.37;74.65;101053.93;109159;1274;22599;-87
2022/01/15 07:45:10;;;;;;;13.50;5.50;;;;;;;-0.34;74.61;101056.34;109243;1274;22557;-87
2022/01/15 07:47:39;;;;;;;13.30;4.50;;;;;;;-0.32;74.45;101064.05;109586;1274;22529;-87
2022/01/15 07:50:11;;;;;;;6.90;3.40;;;;;;;-0.29;74.68;101059.16;109310;1274;24745;-88
2022/01/15 07:52:38;;;;;;;12.30;4.70;;;;;;;-0.26;74.53;101061.36;109427;1274;22535;-89
2022/01/15 07:55:06;;;;;;;12.10;4.30;;;;;;;-0.25;74.50;101069.20;109334;1274;22532;-87
2022/01/15 07:57:54;;;;;;;12.90;4.20;;;;;;;-0.25;74.47;101065.41;109429;1274;22897;-86
2022/01/15 08:00:21;;;;;;;12.60;4.30;;;;;;;-0.21;74.53;101072.50;107243;1275;23713;-86
2022/01/15 08:02:49;;;;;;;13.80;5.10;;;;;;;-0.16;74.55;101076.05;106759;1276;24227;-88
2022/01/15 08:05:17;;;;;;;10.90;4.00;;;;;;;-0.15;74.38;101077.46;106429;1276;25369;-86
2022/01/15 08:07:44;;;;;;;11.60;4.10;;;;;;;-0.07;74.32;101081.09;107300;1275;25379;-89
2022/01/15 08:10:12;;;;;;;16.60;4.10;;;;;;;-0.05;74.20;101077.04;107616;1276;22563;-87
2022/01/15 08:12:50;;;;;;;10.90;3.70;;;;;;;-0.04;74.19;101071.52;108229;1276;22532;-88
2022/01/15 08:15:25;;;;;;;11.90;3.60;;;;;;;-0.02;74.18;101073.02;109119;1274;22876;-88
2022/01/15 08:17:53;;;;;;;12.40;4.40;;;;;;;0.03;74.22;101081.38;109369;1273;22623;-91
2022/01/15 08:20:20;;;;;;;10.30;4.10;;;;;;;0.09;74.05;101088.38;109450;1273;23072;-89
2022/01/15 08:22:50;;;;;;;13.10;4.40;;;;;;;0.16;74.05;101089.04;109192;1273;22714;-88
2022/01/15 08:25:20;;;;;;;11.60;4.70;;;;;;;0.23;73.92;101090.23;108874;1274;22627;-89
2022/01/15 08:27:48;;;;;;;15.30;4.60;;;;;;;0.31;73.81;101094.05;108284;1274;24014;-90
2022/01/15 08:30:18;;;;;;;12.30;3.70;;;;;;;0.38;73.67;101089.13;107887;1274;22563;-89
2022/01/15 08:32:45;;;;;;;11.30;3.60;;;;;;;0.42;73.55;101089.14;107450;1274;207934;-89
2022/01/15 08:35:13;;;;;;;7.60;4.10;;;;;;;0.45;73.40;101087.90;107499;1276;22668;-89
2022/01/15 08:37:41;;;;;;;11.00;3.90;;;;;;;0.51;73.32;101084.48;106866;1275;25268;-88
2022/01/15 08:40:11;;;;;;;9.30;3.60;;;;;;;0.54;73.16;101083.60;106643;1277;24238;-88
2022/01/15 08:42:39;;;;;;;14.30;4.50;;;;;;;0.61;73.18;101074.72;106778;1275;22579;-87
2022/01/15 08:45:10;;;;;;;14.50;3.60;;;;;;;0.71;73.02;101072.86;106774;1273;22647;-88
2022/01/15 08:47:38;;;;;;;10.20;3.40;;;;;;;0.74;72.63;101076.45;106934;1274;24397;-89
2022/01/15 08:50:10;;;;;;;10.70;4.10;;;;;;;0.75;72.45;101077.17;106708;1274;22559;-89
2022/01/15 08:52:39;;;;;;;11.10;4.70;;;;;;;0.76;72.30;101074.46;106800;1273;25420;-87
2022/01/15 08:55:08;;;;;;;9.20;3.50;;;;;;;0.81;72.28;101080.03;107143;1273;22545;-87
2022/01/15 08:57:36;;;;;;;10.40;3.20;;;;;;;0.86;72.12;101078.50;107442;1273;24256;-87
2022/01/15 09:00:08;;;;;;;11.90;4.30;;;;;;;0.91;72.10;101082.73;107294;1273;26616;-89
2022/01/15 09:02:37;;;;;;;13.90;4.90;;;;;;;1.01;72.18;101083.79;107392;1274;25377;-87
2022/01/15 09:05:05;;;;;;;13.30;5.50;;;;;;;1.12;72.16;101091.37;106460;1279;25129;-88
2022/01/15 09:07:34;;;;;;;8.90;4.50;;;;;;;1.19;71.51;101100.66;106366;1279;22566;-89
2022/01/15 09:10:03;;;;;;;13.30;4.20;;;;;;;1.19;71.42;101105.70;106918;1279;24230;-87
2022/01/15 09:12:31;;;;;;;7.90;2.90;;;;;;;1.29;71.54;101116.33;108266;1279;22699;-87
2022/01/15 09:15:19;;;;;;;8.80;3.80;;;;;;;1.44;71.53;101113.80;107779;1278;22821;-87
2022/01/15 09:17:53;;;;;;;11.40;4.10;;;;;;;1.61;71.10;101115.30;108746;1279;22548;-88
2022/01/15 09:20:20;;;;;;;11.30;3.90;;;;;;;1.68;70.98;101115.27;109016;1279;22580;-87
2022/01/15 09:22:48;;;;;;;9.90;4.10;;;;;;;1.81;70.86;101114.03;108514;1275;22679;-90
2022/01/15 09:25:16;;;;;;;10.20;3.70;;;;;;;1.96;70.61;101111.27;107964;1274;25266;-91
2022/01/15 09:30:29;;;;;;;11.90;4.00;;;;;;;2.04;69.64;101119.21;106998;1274;22621;-86
2022/01/15 09:32:58;;;;;;;10.20;2.90;;;;;;;1.98;69.28;101125.59;106375;1280;24197;-89
2022/01/15 09:35:28;;;;;;;10.50;3.50;;;;;;;1.92;69.42;101119.64;106468;1279;25369;-89
2022/01/15 09:37:57;;;;;;;10.80;4.30;;;;;;;2.03;69.51;101114.99;105320;1287;22539;-84
2022/01/15 09:40:27;;;;;;;9.40;3.50;;;;;;;2.06;69.56;101123.27;104549;1293;25398;-86
2022/01/15 09:42:55;;;;;;;9.70;3.90;;;;;;;2.06;69.29;101118.77;104636;1293;22695;-90
2022/01/15 09:45:24;;;;;;;13.00;4.30;;;;;;;1.95;69.02;101118.91;104669;1290;23966;-87
2022/01/15 09:48:10;;;;;;;13.70;3.90;;;;;;;1.88;69.18;101115.33;105127;1290;22589;-88
2022/01/15 09:50:43;;;;;;;9.20;3.20;;;;;;;1.76;69.02;101119.39;105259;1288;22903;-86
2022/01/15 09:53:14;;;;;;;15.40;4.00;;;;;;;1.69;69.29;101125.69;106267;1287;22794;-85
2022/01/15 09:55:41;;;;;;;7.50;3.10;;;;;;;1.69;69.50;101130.24;106343;1287;22618;-87
2022/01/15 09:58:09;;;;;;;9.90;3.80;;;;;;;1.71;69.48;101128.58;106206;1281;26534;-88
2022/01/15 10:00:37;;;;;;;7.60;2.90;;;;;;;1.71;69.52;101128.40;105756;1287;22563;-76
2022/01/15 10:03:05;;;;;;;9.60;3.40;;;;;;;1.72;69.60;101131.41;105549;1282;26528;-86
2022/01/15 10:05:32;;;;;;;16.00;5.10;;;;;;;1.67;69.31;101136.21;105920;1279;25313;-87
2022/01/15 10:08:01;;;;;;;10.70;3.70;;;;;;;1.64;69.65;101137.33;105824;1279;25444;-89
2022/01/15 10:10:34;;;;;;;11.30;3.50;;;;;;;1.67;69.81;101137.98;105977;1279;22874;-88
2022/01/15 10:13:23;;;;;;;8.00;3.40;;;;;;;1.71;69.76;101136.73;105991;1279;22566;-85
2022/01/15 10:15:59;;;;;;;8.90;3.50;;;;;;;1.77;69.76;101128.63;105375;1284;25960;-88
2022/01/15 10:18:31;;;;;;;8.70;3.50;;;;;;;1.81;69.52;101128.09;105553;1282;24082;-88
2022/01/15 10:21:13;;;;;;;11.20;4.30;;;;;;;1.87;69.34;101122.73;106155;1282;22622;-87
2022/01/15 10:23:55;;;;;;;11.30;4.00;;;;;;;1.85;69.24;101117.13;106506;1281;24223;-78
2022/01/15 10:26:36;;;;;;;13.00;4.50;;;;;;;1.88;69.39;101124.52;106324;1282;22636;-83
2022/01/15 10:29:08;;;;;;;10.10;3.70;;;;;;;1.93;69.48;101132.04;106072;1281;23458;-82
2022/01/15 10:31:40;;;;;;;10.10;2.90;;;;;;;2.00;68.90;101133.14;105526;1285;25280;-83
2022/01/15 10:34:29;;;;;;;12.00;3.90;;;;;;;1.87;68.96;101145.34;105005;1284;24294;-85
2022/01/15 10:37:12;;;;;;;12.50;4.20;;;;;;;1.86;69.27;101152.06;105254;1284;23961;-85
2022/01/15 10:39:54;;;;;;;12.30;4.40;;;;;;;1.89;69.34;101154.27;105095;1291;24198;-85
2022/01/15 10:42:23;;;;;;;10.70;4.00;;;;;;;1.99;69.46;101149.63;104848;1294;25394;-87
2022/01/15 10:44:53;;;;;;;8.80;3.90;;;;;;;2.18;69.26;101150.48;104785;1294;23977;-86
2022/01/15 10:47:24;;;;;;;11.20;4.60;;;;;;;2.33;68.81;101158.67;105150;1296;22607;-83
2022/01/15 10:49:53;;;;;;;10.60;3.70;;;;;;;2.37;68.59;101162.46;106635;1294;22605;-79
2022/01/15 10:52:31;;;;;;;11.80;3.50;;;;;;;2.35;68.45;101162.40;107458;1288;22598;-87
2022/01/15 10:55:02;;;;;;;11.80;4.10;;;;;;;2.41;68.50;101165.92;107849;1287;22603;-86
2022/01/15 10:57:38;;;;;;;9.60;3.60;;;;;;;2.42;68.44;101164.77;108639;1281;22953;-85
2022/01/15 11:00:26;;;;;;;8.10;3.40;;;;;;;2.46;68.39;101160.73;109050;1273;22565;-79
2022/01/15 11:03:00;;;;;;;9.60;3.90;;;;;;;2.44;68.06;101171.10;108840;1273;23428;-80
2022/01/15 11:05:39;;;;;;;12.10;4.50;;;;;;;2.37;67.87;101176.40;107336;1278;24233;-79
2022/01/15 11:08:35;;;;;;;12.50;3.50;;;;;;;2.27;67.79;101186.81;107312;1275;23960;-82
2022/01/15 11:11:07;;;;;;;8.40;3.00;;;;;;;2.17;68.25;101191.15;107806;1282;22778;-78
2022/01/15 11:13:35;;;;;;;11.00;4.50;;;;;;;2.17;68.64;101191.32;107301;1287;22628;-78
2022/01/15 11:16:16;;;;;;;10.80;4.00;;;;;;;2.18;68.52;101183.88;106009;1293;22575;-78
2022/01/15 11:18:48;;;;;;;14.30;4.80;;;;;;;2.25;68.48;101186.72;106036;1293;22610;-79
2022/01/15 11:21:19;;;;;;;11.90;4.50;;;;;;;2.24;68.48;101187.92;106267;1293;24253;-85
2022/01/15 11:23:49;;;;;;;10.40;4.60;;;;;;;2.13;68.31;101185.93;106218;1294;22957;-80
2022/01/15 11:26:26;;;;;;;12.30;4.10;;;;;;;2.19;68.94;101187.01;105354;1293;25471;-81
2022/01/15 11:28:55;;;;;;;9.80;3.90;;;;;;;2.33;69.07;101193.28;104625;1293;24317;-80
2022/01/15 11:31:24;;;;;;;18.00;6.10;;;;;;;2.37;68.66;101197.77;104769;1287;25859;-80
2022/01/15 11:33:56;;;;;;;11.00;4.50;;;;;;;2.48;68.59;101201.50;105342;1282;22565;-79
2022/01/15 11:36:39;;;;;;;12.30;4.20;;;;;;;2.46;68.22;101199.33;105565;1284;24371;-78
2022/01/15 11:39:21;;;;;;;12.90;4.10;;;;;;;2.47;67.98;101200.77;105386;1284;23202;-78
2022/01/15 11:41:52;;;;;;;14.70;4.70;;;;;;;2.49;68.18;101199.42;104976;1287;25923;-79
2022/01/15 11:44:41;;;;;;;12.30;4.10;;;;;;;2.56;67.90;101199.85;105171;1285;22799;-79
2022/01/15 11:47:21;;;;;;;15.70;5.60;;;;;;;2.56;67.51;101195.00;105141;1287;22557;-78
2022/01/15 11:49:58;;;;;;;17.40;5.70;;;;;;;2.64;67.95;101199.11;105989;1279;22593;-86
2022/01/15 11:52:46;;;;;;;7.80;3.30;;;;;;;2.76;67.68;101190.98;105906;1281;25287;-81
2022/01/15 11:55:15;;;;;;;14.90;4.60;;;;;;;2.81;66.91;101183.02;105412;1285;23314;-82
2022/01/15 11:57:48;;;;;;;9.40;4.40;;;;;;;2.74;66.91;101187.63;105181;1287;26528;-84
2022/01/15 12:00:28;;;;;;;10.80;4.20;;;;;;;2.56;66.67;101193.62;104978;1285;23955;-82
2022/01/15 12:03:04;;;;;;;11.50;4.80;;;;;;;2.47;67.16;101191.39;105579;1287;22725;-84
2022/01/15 12:05:36;;;;;;;12.00;4.40;;;;;;;2.57;66.99;101191.05;105436;1285;22575;-84
2022/01/15 12:08:08;;;;;;;12.10;4.40;;;;;;;2.46;66.87;101188.73;105358;1288;22611;-79
2022/01/15 12:10:47;;;;;;;10.30;3.00;;;;;;;2.47;67.16;101193.12;105637;1288;22579;-83
2022/01/15 12:13:18;;;;;;;14.90;4.70;;;;;;;2.50;67.13;101196.70;105231;1287;22649;-81
2022/01/15 12:15:47;;;;;;;9.20;4.40;;;;;;;2.71;66.99;101199.70;105187;1285;24411;-85